createdAt,value
2022-11-16T00:00:50.001Z,5.77
2022-11-16T00:03:22.383Z,5.66
2022-11-16T00:05:59.785Z,5.60
2022-11-16T00:08:32.653Z,5.60
2022-11-16T00:11:15.539Z,5.68
2022-11-16T00:13:46.993Z,5.66
2022-11-16T00:16:19.019Z,5.62
2022-11-16T00:18:52.627Z,5.49
2022-11-16T00:21:23.218Z,5.31
2022-11-16T00:23:55.534Z,5.30
2022-11-16T00:26:27.321Z,5.27
2022-11-16T00:28:59.690Z,5.26
2022-11-16T00:31:33.629Z,5.44
2022-11-16T00:34:05.508Z,5.32
2022-11-16T00:36:36.169Z,5.26
2022-11-16T00:39:09.568Z,5.30
2022-11-16T00:41:42.510Z,5.20
2022-11-16T00:44:18.915Z,5.26
2022-11-16T00:46:49.507Z,5.17
2022-11-16T00:49:20.712Z,5.24
2022-11-16T00:51:52.352Z,5.28
2022-11-16T00:54:24.403Z,5.26
2022-11-16T00:56:54.945Z,5.16
2022-11-16T00:59:25.347Z,5.19
2022-11-16T01:01:56.438Z,5.18
2022-11-16T01:04:26.971Z,5.20
2022-11-16T01:06:58.951Z,5.18
2022-11-16T01:09:29.393Z,5.14
2022-11-16T01:12:08.901Z,5.09
2022-11-16T01:14:42.409Z,5.12
2022-11-16T01:17:13.446Z,5.16
2022-11-16T01:19:44.981Z,5.10
2022-11-16T01:22:17.630Z,5.05
2022-11-16T01:24:48.443Z,5.06
2022-11-16T01:27:20.218Z,5.16
2022-11-16T01:29:51.828Z,5.19
2022-11-16T01:32:24.499Z,5.18
2022-11-16T01:34:56.189Z,5.12
2022-11-16T01:37:28.433Z,5.04
2022-11-16T01:39:59.062Z,5.02
2022-11-16T01:42:33.366Z,5.12
2022-11-16T01:45:23.164Z,5.08
2022-11-16T01:47:55.465Z,5.04
2022-11-16T01:50:26.557Z,5.02
2022-11-16T01:53:00.166Z,5.03
2022-11-16T01:55:33.034Z,5.06
2022-11-16T01:58:04.479Z,5.14
2022-11-16T02:00:35.356Z,5.06
2022-11-16T02:03:06.912Z,5.02
2022-11-16T02:06:00.330Z,5.06
2022-11-16T02:09:12.030Z,5.08
2022-11-16T02:12:14.678Z,5.10
2022-11-16T02:15:10.912Z,5.02
2022-11-16T02:17:47.215Z,4.94
2022-11-16T02:20:30.718Z,4.98
2022-11-16T02:23:14.594Z,4.94
2022-11-16T02:26:15.342Z,4.91
2022-11-16T02:28:48.817Z,4.90
2022-11-16T02:31:22.515Z,4.96
2022-11-16T02:33:58.154Z,4.96
2022-11-16T02:36:28.695Z,4.88
2022-11-16T02:39:02.490Z,4.86
2022-11-16T02:41:38.667Z,4.84
2022-11-16T02:44:11.389Z,4.84
2022-11-16T02:46:44.432Z,4.82
2022-11-16T02:49:18.757Z,4.85
2022-11-16T02:51:50.352Z,4.88
2022-11-16T02:54:24.179Z,4.82
2022-11-16T02:57:11.334Z,4.78
2022-11-16T03:02:42.239Z,4.83
2022-11-16T03:05:23.432Z,4.80
2022-11-16T03:08:03.144Z,4.90
2022-11-16T03:10:54.570Z,4.89
2022-11-16T03:13:30.506Z,4.95
2022-11-16T03:16:03.816Z,4.94
2022-11-16T03:18:36.543Z,4.91
2022-11-16T03:21:30.647Z,4.99
2022-11-16T03:24:01.937Z,5.00
2022-11-16T03:26:35.458Z,4.96
2022-11-16T03:29:13.708Z,5.01
2022-11-16T03:31:52.525Z,5.16
2022-11-16T03:34:25.990Z,5.20
2022-11-16T03:36:57.270Z,5.06
2022-11-16T03:39:33.523Z,5.08
2022-11-16T03:42:07.405Z,5.08
2022-11-16T03:44:40.741Z,5.07
2022-11-16T03:47:13.986Z,5.18
2022-11-16T03:49:48.985Z,5.26
2022-11-16T03:52:20.690Z,5.18
2022-11-16T03:54:52.610Z,5.02
2022-11-16T03:57:23.266Z,5.10
2022-11-16T03:59:56.248Z,5.05
2022-11-16T04:02:28.383Z,5.08
2022-11-16T04:05:17.091Z,5.00
2022-11-16T04:08:08.814Z,4.94
2022-11-16T04:10:57.624Z,4.88
2022-11-16T04:13:49.265Z,4.95
2022-11-16T04:16:37.797Z,5.04
2022-11-16T04:19:32.280Z,5.01
2022-11-16T04:22:23.541Z,5.04
2022-11-16T04:24:58.326Z,5.00
2022-11-16T04:27:49.019Z,5.01
2022-11-16T04:30:23.637Z,4.98
2022-11-16T04:33:12.525Z,4.98
2022-11-16T04:36:01.260Z,5.05
2022-11-16T04:38:35.135Z,5.08
2022-11-16T04:41:08.777Z,5.08
2022-11-16T04:43:40.121Z,5.08
2022-11-16T04:46:28.530Z,5.08
2022-11-16T04:48:59.214Z,5.12
2022-11-16T04:51:32.510Z,5.21
2022-11-16T04:54:02.108Z,5.20
2022-11-16T04:56:33.075Z,5.23
2022-11-16T04:59:05.076Z,5.26
2022-11-16T05:01:54.472Z,5.37
2022-11-16T05:04:24.948Z,5.41
2022-11-16T05:06:56.371Z,5.40
2022-11-16T05:09:28.309Z,5.42
2022-11-16T05:12:01.445Z,5.40
2022-11-16T05:14:31.835Z,5.45
2022-11-16T05:17:02.893Z,5.50
2022-11-16T05:19:52.591Z,5.54
2022-11-16T05:22:24.466Z,5.55
2022-11-16T05:24:56.782Z,5.60
2022-11-16T05:27:28.928Z,5.64
2022-11-16T05:30:00.043Z,5.72
2022-11-16T05:32:30.566Z,5.69
2022-11-16T05:35:02.402Z,5.72
2022-11-16T05:37:33.019Z,5.78
2022-11-16T05:40:03.673Z,5.79
2022-11-16T05:42:34.358Z,5.86
2022-11-16T05:45:05.314Z,5.89
2022-11-16T05:47:35.854Z,5.86
2022-11-16T05:50:07.219Z,5.96
2022-11-16T05:52:39.629Z,5.94
2022-11-16T05:55:10.825Z,5.88
2022-11-16T05:57:44.314Z,5.98
2022-11-16T06:00:17.254Z,5.92
2022-11-16T06:02:49.228Z,5.80
2022-11-16T06:05:19.837Z,5.86
2022-11-16T06:07:50.242Z,5.92
2022-11-16T06:10:21.290Z,5.90
2022-11-16T06:12:52.148Z,5.97
2022-11-16T06:15:25.363Z,6.02
2022-11-16T06:17:59.990Z,5.97
2022-11-16T06:20:30.612Z,6.04
2022-11-16T06:23:02.206Z,6.04
2022-11-16T06:25:33.927Z,5.99
2022-11-16T06:28:07.942Z,5.89
2022-11-16T06:30:40.214Z,5.93
2022-11-16T06:33:11.057Z,5.92
2022-11-16T06:35:41.683Z,5.97
2022-11-16T06:38:14.735Z,5.95
2022-11-16T06:40:48.224Z,6.15
2022-11-16T06:43:19.164Z,6.08
2022-11-16T06:45:52.129Z,6.02
2022-11-16T06:48:23.135Z,5.98
2022-11-16T06:50:56.186Z,6.04
2022-11-16T06:53:29.358Z,5.99
2022-11-16T06:56:05.723Z,6.01
2022-11-16T06:58:37.985Z,6.08
2022-11-16T07:01:13.282Z,6.11
2022-11-16T07:03:44.689Z,6.10
2022-11-16T07:06:16.884Z,6.14
2022-11-16T07:08:47.487Z,5.95
2022-11-16T07:11:20.524Z,6.10
2022-11-16T07:13:51.414Z,6.16
2022-11-16T07:16:23.380Z,6.22
2022-11-16T07:18:58.021Z,6.25
2022-11-16T07:21:28.726Z,6.12
2022-11-16T07:23:59.750Z,6.06
2022-11-16T07:26:31.321Z,6.06
2022-11-16T07:29:02.974Z,5.98
2022-11-16T07:31:35.019Z,6.02
2022-11-16T07:34:06.775Z,6.08
2022-11-16T07:36:37.304Z,6.00
2022-11-16T07:39:09.843Z,6.00
2022-11-16T07:41:41.978Z,6.04
2022-11-16T07:44:13.782Z,6.14
2022-11-16T07:46:47.601Z,6.10
2022-11-16T07:49:17.909Z,6.06
2022-11-16T07:51:49.019Z,6.08
2022-11-16T07:54:19.683Z,6.06
2022-11-16T07:56:50.317Z,6.22
2022-11-16T07:59:20.875Z,6.08
2022-11-16T08:01:51.479Z,6.09
2022-11-16T08:04:24.899Z,6.04
2022-11-16T08:06:58.431Z,6.10
2022-11-16T08:09:29.111Z,6.06
2022-11-16T08:12:00.853Z,6.10
2022-11-16T08:14:31.363Z,6.12
2022-11-16T08:17:08.575Z,6.12
2022-11-16T08:19:40.237Z,6.09
2022-11-16T08:22:14.061Z,6.12
2022-11-16T08:24:44.663Z,6.06
2022-11-16T08:27:18.198Z,6.07
2022-11-16T08:29:50.587Z,6.02
2022-11-16T08:32:22.647Z,6.09
2022-11-16T08:34:53.246Z,6.02
2022-11-16T08:37:25.699Z,6.00
2022-11-16T08:39:57.648Z,5.98
2022-11-16T08:42:28.585Z,6.08
2022-11-16T08:45:00.728Z,6.06
2022-11-16T08:47:32.389Z,6.14
2022-11-16T08:50:05.175Z,6.14
2022-11-16T08:52:35.792Z,6.26
2022-11-16T08:55:07.259Z,6.30
2022-11-16T08:57:41.099Z,6.26
2022-11-16T09:00:12.721Z,6.28
2022-11-16T09:02:45.060Z,6.27
2022-11-16T09:05:19.245Z,6.22
2022-11-16T09:07:50.111Z,6.28
2022-11-16T09:10:23.305Z,6.33
2022-11-16T09:12:58.306Z,6.25
2022-11-16T09:15:29.798Z,6.30
2022-11-16T09:18:01.455Z,6.29
2022-11-16T09:20:33.448Z,6.36
2022-11-16T09:23:05.731Z,6.29
2022-11-16T09:25:38.068Z,6.40
2022-11-16T09:28:08.959Z,6.22
2022-11-16T09:30:39.399Z,6.27
2022-11-16T09:33:12.309Z,6.21
2022-11-16T09:35:43.356Z,6.18
2022-11-16T09:38:24.205Z,6.25
2022-11-16T09:40:53.489Z,6.25
2022-11-16T09:43:45.566Z,6.17
2022-11-16T09:46:34.647Z,6.14
2022-11-16T09:49:17.751Z,6.14
2022-11-16T09:51:50.368Z,6.20
2022-11-16T09:54:23.869Z,6.23
2022-11-16T09:56:59.811Z,6.26
2022-11-16T09:59:40.163Z,6.30
2022-11-16T10:02:32.649Z,6.17
2022-11-16T10:05:26.589Z,6.26
2022-11-16T10:08:22.843Z,6.30
2022-11-16T10:10:59.749Z,6.25
2022-11-16T10:13:40.271Z,6.26
2022-11-16T10:16:24.059Z,6.26
2022-11-16T10:19:02.120Z,6.24
2022-11-16T10:21:59.672Z,6.30
2022-11-16T10:24:52.831Z,6.29
2022-11-16T10:27:29.840Z,6.11
2022-11-16T10:30:20.976Z,6.10
2022-11-16T10:33:11.442Z,6.14
2022-11-16T10:35:50.400Z,6.02
2022-11-16T10:38:24.377Z,5.98
2022-11-16T10:41:02.743Z,6.05
2022-11-16T10:43:33.626Z,6.20
2022-11-16T10:46:17.211Z,6.11
2022-11-16T10:49:14.080Z,6.06
2022-11-16T10:51:43.447Z,6.08
2022-11-16T10:54:17.862Z,6.12
2022-11-16T10:56:57.873Z,6.21
2022-11-16T10:59:40.290Z,6.24
2022-11-16T11:02:33.389Z,6.20
2022-11-16T11:05:22.244Z,6.12
2022-11-16T11:08:07.434Z,6.12
2022-11-16T11:10:40.273Z,6.23
2022-11-16T11:13:18.688Z,6.14
2022-11-16T11:15:51.388Z,6.20
2022-11-16T11:18:28.879Z,6.20
2022-11-16T11:21:22.402Z,6.25
2022-11-16T11:24:16.084Z,6.34
2022-11-16T11:26:39.075Z,6.30
2022-11-16T11:29:29.525Z,6.34
2022-11-16T11:32:11.694Z,6.32
2022-11-16T11:34:48.880Z,6.34
2022-11-16T11:37:23.811Z,6.40
2022-11-16T11:40:13.032Z,6.46
2022-11-16T11:42:56.856Z,6.48
2022-11-16T11:45:30.617Z,6.42
2022-11-16T11:48:06.844Z,6.37
2022-11-16T11:50:52.278Z,6.30
2022-11-16T11:53:32.979Z,6.28
2022-11-16T11:56:03.853Z,6.29
2022-11-16T11:58:37.391Z,6.22
2022-11-16T12:01:47.446Z,6.21
2022-11-16T12:04:28.651Z,6.29
2022-11-16T12:07:02.314Z,6.26
2022-11-16T12:09:36.150Z,6.28
2022-11-16T12:12:14.858Z,6.31
2022-11-16T12:15:08.886Z,6.34
2022-11-16T12:18:06.087Z,6.36
2022-11-16T12:20:43.436Z,6.38
2022-11-16T12:23:32.228Z,6.48
2022-11-16T12:26:18.018Z,6.40
2022-11-16T12:29:06.616Z,6.46
2022-11-16T12:32:15.816Z,6.49
2022-11-16T12:34:54.881Z,6.48
2022-11-16T12:37:50.925Z,6.53
2022-11-16T12:40:35.021Z,6.52
2022-11-16T12:43:28.472Z,6.58
2022-11-16T12:46:19.808Z,6.51
2022-11-16T12:49:05.085Z,6.51
2022-11-16T12:51:57.657Z,6.53
2022-11-16T12:54:31.315Z,6.55
2022-11-16T12:57:05.349Z,6.54
2022-11-16T13:00:08.382Z,6.60
2022-11-16T13:03:07.805Z,6.66
2022-11-16T13:05:59.270Z,6.70
2022-11-16T13:08:43.660Z,6.70
2022-11-16T13:11:30.710Z,6.50
2022-11-16T13:14:04.084Z,6.64
2022-11-16T13:16:35.998Z,6.58
2022-11-16T13:19:15.095Z,6.68
2022-11-16T13:22:07.332Z,6.70
2022-11-16T13:25:06.835Z,6.74
2022-11-16T13:27:49.569Z,6.62
2022-11-16T13:30:26.607Z,6.63
2022-11-16T13:33:03.642Z,6.66
2022-11-16T13:35:37.713Z,6.64
2022-11-16T13:38:13.663Z,6.61
2022-11-16T13:40:44.447Z,6.66
2022-11-16T13:43:19.450Z,6.72
2022-11-16T13:46:00.193Z,6.69
2022-11-16T13:48:37.873Z,6.65
2022-11-16T13:51:11.720Z,6.62
2022-11-16T13:54:43.080Z,6.64
2022-11-16T13:56:29.016Z,6.62
2022-11-16T13:58:58.373Z,6.64
2022-11-16T14:01:32.743Z,6.74
2022-11-16T14:04:35.179Z,6.65
2022-11-16T14:07:06.185Z,6.66
2022-11-16T14:09:46.392Z,6.73
2022-11-16T14:12:42.382Z,6.72
2022-11-16T14:15:37.359Z,6.68
2022-11-16T14:18:20.655Z,6.67
2022-11-16T14:20:58.420Z,6.61
2022-11-16T14:23:44.884Z,6.64
2022-11-16T14:26:30.476Z,6.70
2022-11-16T14:29:25.939Z,6.70
2022-11-16T14:31:59.198Z,6.66
2022-11-16T14:34:43.711Z,6.70
2022-11-16T14:37:17.235Z,6.64
2022-11-16T14:39:50.428Z,6.68
2022-11-16T14:43:01.566Z,6.58
2022-11-16T14:45:09.434Z,6.59
2022-11-16T14:47:43.471Z,6.52
2022-11-16T14:50:28.297Z,6.50
2022-11-16T14:53:05.832Z,6.53
2022-11-16T14:55:39.669Z,6.48
2022-11-16T14:58:24.691Z,6.56
2022-11-16T15:00:58.777Z,6.52
2022-11-16T15:03:36.229Z,6.52
2022-11-16T15:06:09.120Z,6.52
2022-11-16T15:08:48.575Z,6.51
2022-11-16T15:11:32.461Z,6.58
2022-11-16T15:14:06.758Z,6.56
2022-11-16T15:16:40.415Z,6.60
2022-11-16T15:19:15.731Z,6.58
2022-11-16T15:21:57.374Z,6.57
2022-11-16T15:24:33.951Z,6.56
2022-11-16T15:27:25.088Z,6.53
2022-11-16T15:29:57.176Z,6.46
2022-11-16T15:32:27.678Z,6.46
2022-11-16T15:35:04.003Z,6.45
2022-11-16T15:37:33.452Z,6.42
2022-11-16T15:40:08.080Z,6.34
2022-11-16T15:42:42.165Z,6.35
2022-11-16T15:45:17.743Z,6.38
2022-11-16T15:47:49.491Z,6.36
2022-11-16T15:50:24.380Z,6.38
2022-11-16T15:52:56.446Z,6.47
2022-11-16T15:55:37.752Z,6.47
2022-11-16T15:58:16.014Z,6.48
2022-11-16T16:00:49.865Z,6.48
2022-11-16T16:03:31.230Z,6.50
2022-11-16T16:06:02.647Z,6.54
2022-11-16T16:08:35.608Z,6.54
2022-11-16T16:11:15.810Z,6.57
2022-11-16T16:14:03.595Z,6.65
2022-11-16T16:16:37.596Z,6.62
2022-11-16T16:19:30.362Z,6.61
2022-11-16T16:22:02.791Z,6.58
2022-11-16T16:24:45.820Z,6.50
2022-11-16T16:27:23.038Z,6.54
2022-11-16T16:29:56.043Z,6.60
2022-11-16T16:32:31.870Z,6.56
2022-11-16T16:35:05.134Z,6.59
2022-11-16T16:37:39.753Z,6.56
2022-11-16T16:40:13.188Z,6.56
2022-11-16T16:42:45.738Z,6.50
2022-11-16T16:45:34.568Z,6.42
2022-11-16T16:48:08.226Z,6.48
2022-11-16T16:50:42.139Z,6.48
2022-11-16T16:53:16.469Z,6.49
2022-11-16T16:55:48.970Z,6.52
2022-11-16T16:58:19.873Z,6.62
2022-11-16T17:00:56.943Z,6.58
2022-11-16T17:03:24.877Z,6.60
2022-11-16T17:05:58.648Z,6.58
2022-11-16T17:08:33.277Z,6.56
2022-11-16T17:11:07.153Z,6.54
2022-11-16T17:13:37.837Z,6.54
2022-11-16T17:16:13.772Z,6.44
2022-11-16T17:18:45.879Z,6.47
2022-11-16T17:21:16.411Z,6.50
2022-11-16T17:23:49.234Z,6.50
2022-11-16T17:26:23.958Z,6.36
2022-11-16T17:28:59.400Z,6.31
2022-11-16T17:31:30.406Z,6.32
2022-11-16T17:34:01.635Z,6.40
2022-11-16T17:36:32.249Z,6.45
2022-11-16T17:39:09.473Z,6.37
2022-11-16T17:41:40.036Z,6.36
2022-11-16T17:44:14.948Z,6.38
2022-11-16T17:46:47.461Z,6.37
2022-11-16T17:49:19.864Z,6.38
2022-11-16T17:51:50.427Z,6.40
2022-11-16T17:54:23.285Z,6.35
2022-11-16T17:56:53.782Z,6.26
2022-11-16T17:59:29.798Z,6.30
2022-11-16T18:02:02.998Z,6.28
2022-11-16T18:04:36.696Z,6.30
2022-11-16T18:07:09.852Z,6.36
2022-11-16T18:09:41.917Z,6.21
2022-11-16T18:12:12.841Z,6.30
2022-11-16T18:14:59.896Z,6.23
2022-11-16T18:17:18.222Z,6.28
2022-11-16T18:19:51.789Z,6.30
2022-11-16T18:22:23.812Z,6.32
2022-11-16T18:24:57.667Z,6.38
2022-11-16T18:27:28.824Z,6.39
2022-11-16T18:30:00.935Z,6.32
2022-11-16T18:32:33.472Z,6.28
2022-11-16T18:35:09.889Z,6.18
2022-11-16T18:37:41.952Z,6.22
2022-11-16T18:40:14.224Z,6.19
2022-11-16T18:42:47.670Z,6.16
2022-11-16T18:45:20.218Z,6.24
2022-11-16T18:47:54.895Z,6.31
2022-11-16T18:50:26.968Z,6.24
2022-11-16T18:52:59.137Z,6.20
2022-11-16T18:55:29.609Z,6.20
2022-11-16T18:58:17.548Z,6.12
2022-11-16T19:00:38.832Z,6.15
2022-11-16T19:03:11.681Z,6.15
2022-11-16T19:05:44.634Z,6.18
2022-11-16T19:08:17.154Z,6.20
2022-11-16T19:10:47.750Z,6.16
2022-11-16T19:13:18.270Z,6.14
2022-11-16T19:15:50.197Z,6.24
2022-11-16T19:18:25.947Z,6.17
2022-11-16T19:21:10.665Z,6.10
2022-11-16T19:23:48.596Z,6.08
2022-11-16T19:26:17.588Z,6.15
2022-11-16T19:28:52.007Z,6.15
2022-11-16T19:31:25.488Z,6.02
2022-11-16T19:33:59.848Z,6.06
2022-11-16T19:36:34.600Z,6.11
2022-11-16T19:39:08.385Z,6.17
2022-11-16T19:41:40.326Z,6.08
2022-11-16T19:44:11.144Z,6.08
2022-11-16T19:46:44.150Z,6.06
2022-11-16T19:49:19.970Z,6.07
2022-11-16T19:51:50.626Z,6.04
2022-11-16T19:54:22.122Z,6.00
2022-11-16T19:56:58.548Z,5.93
2022-11-16T19:59:30.478Z,6.02
2022-11-16T20:02:03.741Z,6.02
2022-11-16T20:04:35.986Z,6.01
2022-11-16T20:07:08.365Z,5.98
2022-11-16T20:09:40.757Z,5.90
2022-11-16T20:12:20.123Z,5.89
2022-11-16T20:14:50.895Z,5.82
2022-11-16T20:17:24.872Z,5.77
2022-11-16T20:19:55.450Z,5.74
2022-11-16T20:22:26.599Z,5.72
2022-11-16T20:25:00.124Z,5.76
2022-11-16T20:27:37.258Z,5.70
2022-11-16T20:30:09.933Z,5.74
2022-11-16T20:32:43.948Z,5.73
2022-11-16T20:35:19.280Z,5.61
2022-11-16T20:37:52.184Z,5.66
2022-11-16T20:40:25.044Z,5.69
2022-11-16T20:42:58.196Z,5.68
2022-11-16T20:45:28.710Z,5.71
2022-11-16T20:48:03.741Z,5.70
2022-11-16T20:50:35.808Z,5.67
2022-11-16T20:53:12.025Z,5.62
2022-11-16T20:55:44.058Z,5.64
2022-11-16T20:58:22.651Z,5.63
2022-11-16T21:00:52.995Z,5.60
2022-11-16T21:03:24.387Z,5.59
2022-11-16T21:05:56.025Z,5.58
2022-11-16T21:08:30.907Z,5.58
2022-11-16T21:11:13.880Z,5.58
2022-11-16T21:14:04.900Z,5.65
2022-11-16T21:16:36.275Z,5.58
2022-11-16T21:19:09.889Z,5.57
2022-11-16T21:21:42.470Z,5.57
2022-11-16T21:24:14.151Z,5.47
2022-11-16T21:26:46.437Z,5.54
2022-11-16T21:29:20.591Z,5.52
2022-11-16T21:31:54.554Z,5.56
2022-11-16T21:34:40.122Z,5.48
2022-11-16T21:37:08.312Z,5.48
2022-11-16T21:39:39.477Z,5.46
2022-11-16T21:42:12.804Z,5.50
2022-11-16T21:44:43.337Z,5.38
2022-11-16T21:47:15.422Z,5.33
2022-11-16T21:50:16.440Z,5.34
2022-11-16T21:52:22.734Z,5.28
2022-11-16T21:54:54.758Z,5.31
2022-11-16T21:57:28.584Z,5.31
2022-11-16T22:00:03.023Z,5.42
2022-11-16T22:02:35.507Z,5.26
2022-11-16T22:05:24.912Z,5.21
2022-11-16T22:07:58.759Z,5.22
2022-11-16T22:10:33.487Z,5.24
2022-11-16T22:13:09.318Z,5.11
2022-11-16T22:15:41.574Z,5.11
2022-11-16T22:18:13.831Z,5.06
2022-11-16T22:20:51.641Z,5.12
2022-11-16T22:23:24.145Z,5.12
2022-11-16T22:26:03.704Z,5.03
2022-11-16T22:28:35.168Z,5.01
2022-11-16T22:31:10.774Z,5.03
2022-11-16T22:33:41.817Z,5.06
2022-11-16T22:36:13.581Z,5.02
2022-11-16T22:38:44.122Z,5.04
2022-11-16T22:41:19.513Z,5.06
2022-11-16T22:43:49.946Z,4.95
2022-11-16T22:46:21.914Z,4.91
2022-11-16T22:48:54.092Z,5.00
2022-11-16T22:51:34.960Z,4.81
2022-11-16T22:54:07.401Z,4.78
2022-11-16T22:56:40.043Z,4.84
2022-11-16T22:59:12.053Z,4.75
2022-11-16T23:01:44.725Z,4.70
2022-11-16T23:04:16.917Z,4.70
2022-11-16T23:06:49.239Z,4.76
2022-11-16T23:09:19.891Z,4.76
2022-11-16T23:12:11.295Z,4.71
2022-11-16T23:15:01.234Z,4.59
2022-11-16T23:17:32.511Z,4.58
2022-11-16T23:20:21.196Z,4.56
2022-11-16T23:23:09.358Z,4.54
2022-11-16T23:26:04.039Z,4.52
2022-11-16T23:28:36.372Z,4.40
2022-11-16T23:31:09.435Z,4.32
2022-11-16T23:33:47.043Z,4.39
2022-11-16T23:36:17.524Z,4.23
2022-11-16T23:38:48.629Z,4.20
2022-11-16T23:41:40.300Z,4.28
2022-11-16T23:44:14.200Z,4.25
2022-11-16T23:46:50.014Z,4.27
2022-11-16T23:49:20.680Z,4.20
2022-11-16T23:51:51.910Z,4.19
2022-11-16T23:54:26.139Z,4.20
2022-11-16T23:56:56.939Z,4.16
2022-11-16T23:59:27.734Z,4.12
